sensor_id;sensor_type;location;lat;lon;timestamp;P1;durP1;ratioP1;P2;durP2;ratioP2
6121;SDS011;3091;51.506;7.672;2023-03-03T00:00:50;19.63;;;18.43;;
6121;SDS011;3091;51.506;7.672;2023-03-03T00:03:17;17.60;;;16.60;;
6121;SDS011;3091;51.506;7.672;2023-03-03T00:05:44;18.43;;;17.53;;
6121;SDS011;3091;51.506;7.672;2023-03-03T00:08:12;17.80;;;16.90;;
6121;SDS011;3091;51.506;7.672;2023-03-03T00:10:38;22.50;;;21.00;;
6121;SDS011;3091;51.506;7.672;2023-03-03T00:13:05;20.00;;;18.80;;
6121;SDS011;3091;51.506;7.672;2023-03-03T00:15:37;20.47;;;19.47;;
6121;SDS011;3091;51.506;7.672;2023-03-03T00:18:05;22.20;;;20.90;;
6121;SDS011;3091;51.506;7.672;2023-03-03T00:20:36;19.93;;;19.03;;
6121;SDS011;3091;51.506;7.672;2023-03-03T00:23:08;22.13;;;20.77;;
6121;SDS011;3091;51.506;7.672;2023-03-03T00:25:38;21.50;;;20.30;;
6121;SDS011;3091;51.506;7.672;2023-03-03T00:28:29;26.97;;;18.50;;
6121;SDS011;3091;51.506;7.672;2023-03-03T00:30:54;17.90;;;17.10;;
6121;SDS011;3091;51.506;7.672;2023-03-03T00:35:52;21.83;;;20.13;;
6121;SDS011;3091;51.506;7.672;2023-03-03T00:38:18;20.33;;;19.47;;
6121;SDS011;3091;51.506;7.672;2023-03-03T00:40:47;18.67;;;17.77;;
6121;SDS011;3091;51.506;7.672;2023-03-03T00:43:20;25.37;;;23.40;;
6121;SDS011;3091;51.506;7.672;2023-03-03T00:45:49;19.73;;;18.73;;
6121;SDS011;3091;51.506;7.672;2023-03-03T00:48:24;20.60;;;19.30;;
6121;SDS011;3091;51.506;7.672;2023-03-03T00:50:51;24.80;;;22.93;;
6121;SDS011;3091;51.506;7.672;2023-03-03T00:53:18;22.33;;;20.30;;
6121;SDS011;3091;51.506;7.672;2023-03-03T00:55:45;21.70;;;19.87;;
6121;SDS011;3091;51.506;7.672;2023-03-03T00:58:11;21.53;;;20.30;;
6121;SDS011;3091;51.506;7.672;2023-03-03T01:00:38;23.27;;;21.67;;
6121;SDS011;3091;51.506;7.672;2023-03-03T01:03:07;21.77;;;20.03;;
6121;SDS011;3091;51.506;7.672;2023-03-03T01:05:36;25.63;;;23.60;;
6121;SDS011;3091;51.506;7.672;2023-03-03T01:08:04;26.43;;;20.20;;
6121;SDS011;3091;51.506;7.672;2023-03-03T01:10:31;20.13;;;18.83;;
6121;SDS011;3091;51.506;7.672;2023-03-03T01:12:58;17.40;;;16.57;;
6121;SDS011;3091;51.506;7.672;2023-03-03T01:15:24;21.83;;;20.63;;
6121;SDS011;3091;51.506;7.672;2023-03-03T01:17:50;23.00;;;20.80;;
6121;SDS011;3091;51.506;7.672;2023-03-03T01:20:17;20.57;;;19.17;;
6121;SDS011;3091;51.506;7.672;2023-03-03T01:22:43;19.37;;;18.40;;
6121;SDS011;3091;51.506;7.672;2023-03-03T01:25:09;22.33;;;20.10;;
6121;SDS011;3091;51.506;7.672;2023-03-03T01:27:35;18.63;;;17.80;;
6121;SDS011;3091;51.506;7.672;2023-03-03T01:30:03;18.47;;;17.57;;
6121;SDS011;3091;51.506;7.672;2023-03-03T01:32:29;18.00;;;17.20;;
6121;SDS011;3091;51.506;7.672;2023-03-03T01:34:55;22.67;;;20.83;;
6121;SDS011;3091;51.506;7.672;2023-03-03T01:37:21;19.40;;;18.40;;
6121;SDS011;3091;51.506;7.672;2023-03-03T01:39:48;22.07;;;20.70;;
6121;SDS011;3091;51.506;7.672;2023-03-03T01:42:14;20.57;;;19.40;;
6121;SDS011;3091;51.506;7.672;2023-03-03T01:44:40;22.30;;;21.00;;
6121;SDS011;3091;51.506;7.672;2023-03-03T01:47:14;17.57;;;16.77;;
6121;SDS011;3091;51.506;7.672;2023-03-03T01:49:43;26.77;;;24.67;;
6121;SDS011;3091;51.506;7.672;2023-03-03T01:52:24;22.63;;;21.13;;
6121;SDS011;3091;51.506;7.672;2023-03-03T01:54:53;20.87;;;19.47;;
6121;SDS011;3091;51.506;7.672;2023-03-03T01:57:31;21.93;;;20.23;;
6121;SDS011;3091;51.506;7.672;2023-03-03T01:59:58;19.53;;;18.33;;
6121;SDS011;3091;51.506;7.672;2023-03-03T02:02:25;16.50;;;15.80;;
6121;SDS011;3091;51.506;7.672;2023-03-03T02:04:52;22.33;;;20.97;;
6121;SDS011;3091;51.506;7.672;2023-03-03T02:07:20;18.50;;;17.63;;
6121;SDS011;3091;51.506;7.672;2023-03-03T02:12:17;20.03;;;18.83;;
6121;SDS011;3091;51.506;7.672;2023-03-03T02:14:43;18.53;;;17.73;;
6121;SDS011;3091;51.506;7.672;2023-03-03T02:17:09;19.80;;;18.73;;
6121;SDS011;3091;51.506;7.672;2023-03-03T02:19:44;19.00;;;18.10;;
6121;SDS011;3091;51.506;7.672;2023-03-03T02:22:12;21.60;;;20.23;;
6121;SDS011;3091;51.506;7.672;2023-03-03T02:24:44;20.80;;;19.90;;
6121;SDS011;3091;51.506;7.672;2023-03-03T02:27:14;25.63;;;23.93;;
6121;SDS011;3091;51.506;7.672;2023-03-03T02:29:40;23.53;;;21.77;;
6121;SDS011;3091;51.506;7.672;2023-03-03T02:32:06;19.10;;;18.20;;
6121;SDS011;3091;51.506;7.672;2023-03-03T02:34:42;18.70;;;17.83;;
6121;SDS011;3091;51.506;7.672;2023-03-03T02:37:09;17.80;;;17.00;;
6121;SDS011;3091;51.506;7.672;2023-03-03T02:39:34;24.73;;;22.93;;
6121;SDS011;3091;51.506;7.672;2023-03-03T02:42:02;19.03;;;18.03;;
6121;SDS011;3091;51.506;7.672;2023-03-03T02:44:30;22.80;;;21.17;;
6121;SDS011;3091;51.506;7.672;2023-03-03T02:46:56;24.23;;;22.90;;
6121;SDS011;3091;51.506;7.672;2023-03-03T02:49:24;24.67;;;23.00;;
6121;SDS011;3091;51.506;7.672;2023-03-03T02:51:50;18.53;;;17.73;;
6121;SDS011;3091;51.506;7.672;2023-03-03T02:54:17;21.17;;;20.13;;
6121;SDS011;3091;51.506;7.672;2023-03-03T02:56:43;22.07;;;20.47;;
6121;SDS011;3091;51.506;7.672;2023-03-03T02:59:10;18.03;;;17.30;;
6121;SDS011;3091;51.506;7.672;2023-03-03T03:01:36;22.57;;;20.90;;
6121;SDS011;3091;51.506;7.672;2023-03-03T03:04:06;18.90;;;18.00;;
6121;SDS011;3091;51.506;7.672;2023-03-03T03:06:33;21.00;;;19.77;;
6121;SDS011;3091;51.506;7.672;2023-03-03T03:08:59;18.73;;;17.83;;
6121;SDS011;3091;51.506;7.672;2023-03-03T03:11:25;17.90;;;17.10;;
6121;SDS011;3091;51.506;7.672;2023-03-03T03:13:52;21.17;;;19.83;;
6121;SDS011;3091;51.506;7.672;2023-03-03T03:16:18;18.93;;;18.10;;
6121;SDS011;3091;51.506;7.672;2023-03-03T03:18:46;20.53;;;19.23;;
6121;SDS011;3091;51.506;7.672;2023-03-03T03:21:14;21.40;;;20.10;;
6121;SDS011;3091;51.506;7.672;2023-03-03T03:23:40;19.07;;;17.80;;
6121;SDS011;3091;51.506;7.672;2023-03-03T03:26:06;18.20;;;17.40;;
6121;SDS011;3091;51.506;7.672;2023-03-03T03:28:33;19.03;;;18.20;;
6121;SDS011;3091;51.506;7.672;2023-03-03T03:30:59;23.37;;;22.07;;
6121;SDS011;3091;51.506;7.672;2023-03-03T03:33:25;18.73;;;17.87;;
6121;SDS011;3091;51.506;7.672;2023-03-03T03:35:52;18.10;;;17.30;;
6121;SDS011;3091;51.506;7.672;2023-03-03T03:38:19;19.40;;;18.30;;
6121;SDS011;3091;51.506;7.672;2023-03-03T03:40:46;21.17;;;19.77;;
6121;SDS011;3091;51.506;7.672;2023-03-03T03:43:12;23.73;;;21.70;;
6121;SDS011;3091;51.506;7.672;2023-03-03T03:45:38;18.27;;;17.37;;
6121;SDS011;3091;51.506;7.672;2023-03-03T03:48:06;19.77;;;18.73;;
6121;SDS011;3091;51.506;7.672;2023-03-03T03:50:32;20.27;;;19.07;;
6121;SDS011;3091;51.506;7.672;2023-03-03T03:52:58;19.97;;;18.97;;
6121;SDS011;3091;51.506;7.672;2023-03-03T03:55:24;17.30;;;16.50;;
6121;SDS011;3091;51.506;7.672;2023-03-03T03:57:50;22.03;;;20.93;;
6121;SDS011;3091;51.506;7.672;2023-03-03T04:00:16;17.67;;;16.87;;
6121;SDS011;3091;51.506;7.672;2023-03-03T04:02:42;23.47;;;21.50;;
6121;SDS011;3091;51.506;7.672;2023-03-03T04:05:08;18.00;;;17.10;;
6121;SDS011;3091;51.506;7.672;2023-03-03T04:07:35;18.30;;;17.30;;
6121;SDS011;3091;51.506;7.672;2023-03-03T04:10:03;19.40;;;17.93;;
6121;SDS011;3091;51.506;7.672;2023-03-03T04:12:29;21.63;;;20.20;;
6121;SDS011;3091;51.506;7.672;2023-03-03T04:15:02;20.10;;;18.53;;
6121;SDS011;3091;51.506;7.672;2023-03-03T04:17:28;18.53;;;17.50;;
6121;SDS011;3091;51.506;7.672;2023-03-03T04:19:54;21.10;;;19.80;;
6121;SDS011;3091;51.506;7.672;2023-03-03T04:22:20;20.10;;;19.10;;
6121;SDS011;3091;51.506;7.672;2023-03-03T04:24:46;20.43;;;19.23;;
6121;SDS011;3091;51.506;7.672;2023-03-03T04:27:13;21.50;;;19.77;;
6121;SDS011;3091;51.506;7.672;2023-03-03T04:29:39;22.50;;;21.17;;
6121;SDS011;3091;51.506;7.672;2023-03-03T04:32:06;21.73;;;20.40;;
6121;SDS011;3091;51.506;7.672;2023-03-03T04:34:32;18.07;;;17.27;;
6121;SDS011;3091;51.506;7.672;2023-03-03T04:36:58;17.97;;;17.17;;
6121;SDS011;3091;51.506;7.672;2023-03-03T04:39:24;20.90;;;19.60;;
6121;SDS011;3091;51.506;7.672;2023-03-03T04:41:51;18.33;;;17.53;;
6121;SDS011;3091;51.506;7.672;2023-03-03T04:44:17;20.87;;;19.67;;
6121;SDS011;3091;51.506;7.672;2023-03-03T04:46:43;19.70;;;18.80;;
6121;SDS011;3091;51.506;7.672;2023-03-03T04:49:09;22.67;;;21.13;;
6121;SDS011;3091;51.506;7.672;2023-03-03T04:51:35;21.30;;;19.70;;
6121;SDS011;3091;51.506;7.672;2023-03-03T04:54:03;20.87;;;19.80;;
6121;SDS011;3091;51.506;7.672;2023-03-03T04:56:30;21.27;;;19.90;;
6121;SDS011;3091;51.506;7.672;2023-03-03T04:58:56;24.27;;;22.17;;
6121;SDS011;3091;51.506;7.672;2023-03-03T05:01:22;19.33;;;18.33;;
6121;SDS011;3091;51.506;7.672;2023-03-03T05:03:50;18.63;;;17.73;;
6121;SDS011;3091;51.506;7.672;2023-03-03T05:06:16;20.37;;;19.07;;
6121;SDS011;3091;51.506;7.672;2023-03-03T05:08:43;19.63;;;18.73;;
6121;SDS011;3091;51.506;7.672;2023-03-03T05:11:09;25.20;;;19.73;;
6121;SDS011;3091;51.506;7.672;2023-03-03T05:13:35;30.23;;;27.37;;
6121;SDS011;3091;51.506;7.672;2023-03-03T05:16:01;18.80;;;17.90;;
6121;SDS011;3091;51.506;7.672;2023-03-03T05:18:27;19.57;;;18.53;;
6121;SDS011;3091;51.506;7.672;2023-03-03T05:20:53;18.80;;;17.80;;
6121;SDS011;3091;51.506;7.672;2023-03-03T05:23:19;19.73;;;18.63;;
6121;SDS011;3091;51.506;7.672;2023-03-03T05:25:46;21.73;;;20.37;;
6121;SDS011;3091;51.506;7.672;2023-03-03T05:28:12;24.40;;;22.30;;
6121;SDS011;3091;51.506;7.672;2023-03-03T05:30:38;22.33;;;20.97;;
6121;SDS011;3091;51.506;7.672;2023-03-03T05:33:04;20.20;;;19.20;;
6121;SDS011;3091;51.506;7.672;2023-03-03T05:35:33;20.80;;;19.50;;
6121;SDS011;3091;51.506;7.672;2023-03-03T05:37:59;21.03;;;19.57;;
6121;SDS011;3091;51.506;7.672;2023-03-03T05:40:25;20.13;;;19.13;;
6121;SDS011;3091;51.506;7.672;2023-03-03T05:42:52;29.77;;;22.87;;
6121;SDS011;3091;51.506;7.672;2023-03-03T05:45:20;20.67;;;19.50;;
6121;SDS011;3091;51.506;7.672;2023-03-03T05:47:48;28.27;;;25.90;;
6121;SDS011;3091;51.506;7.672;2023-03-03T05:50:15;17.87;;;16.97;;
6121;SDS011;3091;51.506;7.672;2023-03-03T05:52:43;19.40;;;18.40;;
6121;SDS011;3091;51.506;7.672;2023-03-03T05:55:10;22.00;;;20.63;;
6121;SDS011;3091;51.506;7.672;2023-03-03T05:57:36;18.53;;;17.63;;
6121;SDS011;3091;51.506;7.672;2023-03-03T06:00:03;18.10;;;17.30;;
6121;SDS011;3091;51.506;7.672;2023-03-03T06:02:29;18.80;;;17.90;;
6121;SDS011;3091;51.506;7.672;2023-03-03T06:04:55;21.03;;;19.77;;
6121;SDS011;3091;51.506;7.672;2023-03-03T06:07:21;21.27;;;20.17;;
6121;SDS011;3091;51.506;7.672;2023-03-03T06:09:47;19.70;;;18.70;;
6121;SDS011;3091;51.506;7.672;2023-03-03T06:12:16;21.17;;;19.60;;
6121;SDS011;3091;51.506;7.672;2023-03-03T06:14:42;23.23;;;22.03;;
6121;SDS011;3091;51.506;7.672;2023-03-03T06:17:08;19.67;;;18.77;;
6121;SDS011;3091;51.506;7.672;2023-03-03T06:19:35;20.60;;;19.57;;
6121;SDS011;3091;51.506;7.672;2023-03-03T06:22:03;19.60;;;18.60;;
6121;SDS011;3091;51.506;7.672;2023-03-03T06:24:29;19.43;;;18.43;;
6121;SDS011;3091;51.506;7.672;2023-03-03T06:26:56;19.83;;;18.83;;
6121;SDS011;3091;51.506;7.672;2023-03-03T06:29:22;23.23;;;21.70;;
6121;SDS011;3091;51.506;7.672;2023-03-03T06:31:48;22.57;;;21.20;;
6121;SDS011;3091;51.506;7.672;2023-03-03T06:34:14;26.87;;;24.47;;
6121;SDS011;3091;51.506;7.672;2023-03-03T06:36:40;26.73;;;24.03;;
6121;SDS011;3091;51.506;7.672;2023-03-03T06:39:06;21.10;;;19.90;;
6121;SDS011;3091;51.506;7.672;2023-03-03T06:41:32;21.87;;;20.77;;
6121;SDS011;3091;51.506;7.672;2023-03-03T06:43:58;24.37;;;22.87;;
6121;SDS011;3091;51.506;7.672;2023-03-03T06:46:25;20.83;;;19.83;;
6121;SDS011;3091;51.506;7.672;2023-03-03T06:48:51;19.90;;;18.63;;
6121;SDS011;3091;51.506;7.672;2023-03-03T06:51:24;18.30;;;17.40;;
6121;SDS011;3091;51.506;7.672;2023-03-03T06:53:54;19.80;;;18.73;;
6121;SDS011;3091;51.506;7.672;2023-03-03T06:56:22;21.67;;;20.27;;
6121;SDS011;3091;51.506;7.672;2023-03-03T06:58:48;19.33;;;18.43;;
6121;SDS011;3091;51.506;7.672;2023-03-03T07:01:17;19.23;;;18.33;;
6121;SDS011;3091;51.506;7.672;2023-03-03T07:03:43;21.67;;;20.57;;
6121;SDS011;3091;51.506;7.672;2023-03-03T07:06:23;23.03;;;21.73;;
6121;SDS011;3091;51.506;7.672;2023-03-03T07:08:51;19.47;;;18.57;;
6121;SDS011;3091;51.506;7.672;2023-03-03T07:11:18;21.30;;;20.40;;
6121;SDS011;3091;51.506;7.672;2023-03-03T07:13:46;22.10;;;21.10;;
6121;SDS011;3091;51.506;7.672;2023-03-03T07:16:12;21.60;;;20.60;;
6121;SDS011;3091;51.506;7.672;2023-03-03T07:18:46;19.00;;;18.10;;
6121;SDS011;3091;51.506;7.672;2023-03-03T07:21:34;19.73;;;18.73;;
6121;SDS011;3091;51.506;7.672;2023-03-03T07:24:07;19.80;;;18.90;;
6121;SDS011;3091;51.506;7.672;2023-03-03T07:26:39;22.53;;;21.43;;
6121;SDS011;3091;51.506;7.672;2023-03-03T07:29:18;22.10;;;21.00;;
6121;SDS011;3091;51.506;7.672;2023-03-03T07:31:46;19.03;;;18.13;;
6121;SDS011;3091;51.506;7.672;2023-03-03T07:36:41;19.43;;;18.53;;
6121;SDS011;3091;51.506;7.672;2023-03-03T07:39:20;21.67;;;20.50;;
6121;SDS011;3091;51.506;7.672;2023-03-03T07:41:49;19.30;;;18.40;;
6121;SDS011;3091;51.506;7.672;2023-03-03T07:44:22;21.30;;;20.30;;
6121;SDS011;3091;51.506;7.672;2023-03-03T07:46:49;19.43;;;18.53;;
6121;SDS011;3091;51.506;7.672;2023-03-03T07:49:23;19.63;;;18.73;;
6121;SDS011;3091;51.506;7.672;2023-03-03T07:51:55;21.20;;;19.93;;
6121;SDS011;3091;51.506;7.672;2023-03-03T07:54:38;19.10;;;18.20;;
6121;SDS011;3091;51.506;7.672;2023-03-03T07:57:11;20.97;;;19.87;;
6121;SDS011;3091;51.506;7.672;2023-03-03T07:59:40;21.47;;;20.23;;
6121;SDS011;3091;51.506;7.672;2023-03-03T08:02:28;19.47;;;18.57;;
6121;SDS011;3091;51.506;7.672;2023-03-03T08:04:57;19.17;;;18.17;;
6121;SDS011;3091;51.506;7.672;2023-03-03T08:07:23;22.30;;;20.80;;
6121;SDS011;3091;51.506;7.672;2023-03-03T08:09:58;20.60;;;18.90;;
6121;SDS011;3091;51.506;7.672;2023-03-03T08:14:54;22.60;;;21.30;;
6121;SDS011;3091;51.506;7.672;2023-03-03T08:17:22;18.27;;;17.37;;
6121;SDS011;3091;51.506;7.672;2023-03-03T08:19:51;18.97;;;18.07;;
6121;SDS011;3091;51.506;7.672;2023-03-03T08:22:30;17.97;;;17.17;;
6121;SDS011;3091;51.506;7.672;2023-03-03T08:24:56;20.57;;;19.70;;
6121;SDS011;3091;51.506;7.672;2023-03-03T08:27:22;21.70;;;20.77;;
6121;SDS011;3091;51.506;7.672;2023-03-03T08:29:48;20.80;;;19.53;;
6121;SDS011;3091;51.506;7.672;2023-03-03T08:32:14;18.70;;;17.90;;
6121;SDS011;3091;51.506;7.672;2023-03-03T08:34:40;18.23;;;17.43;;
6121;SDS011;3091;51.506;7.672;2023-03-03T08:37:06;19.30;;;18.50;;
6121;SDS011;3091;51.506;7.672;2023-03-03T08:39:32;21.93;;;20.17;;
6121;SDS011;3091;51.506;7.672;2023-03-03T08:41:58;19.77;;;18.77;;
6121;SDS011;3091;51.506;7.672;2023-03-03T08:44:25;21.30;;;20.30;;
6121;SDS011;3091;51.506;7.672;2023-03-03T08:46:51;17.67;;;17.00;;
6121;SDS011;3091;51.506;7.672;2023-03-03T08:49:20;19.07;;;17.60;;
6121;SDS011;3091;51.506;7.672;2023-03-03T08:51:46;23.47;;;22.30;;
6121;SDS011;3091;51.506;7.672;2023-03-03T08:54:12;19.63;;;18.53;;
6121;SDS011;3091;51.506;7.672;2023-03-03T08:56:38;20.33;;;19.33;;
6121;SDS011;3091;51.506;7.672;2023-03-03T08:59:04;17.50;;;16.60;;
6121;SDS011;3091;51.506;7.672;2023-03-03T09:01:31;18.17;;;17.07;;
6121;SDS011;3091;51.506;7.672;2023-03-03T09:03:57;17.17;;;16.47;;
6121;SDS011;3091;51.506;7.672;2023-03-03T09:06:23;18.53;;;17.83;;
6121;SDS011;3091;51.506;7.672;2023-03-03T09:08:49;18.27;;;17.30;;
6121;SDS011;3091;51.506;7.672;2023-03-03T09:11:18;17.90;;;17.20;;
6121;SDS011;3091;51.506;7.672;2023-03-03T09:13:45;19.10;;;17.80;;
6121;SDS011;3091;51.506;7.672;2023-03-03T09:16:17;19.00;;;17.23;;
6121;SDS011;3091;51.506;7.672;2023-03-03T09:18:45;18.40;;;17.00;;
6121;SDS011;3091;51.506;7.672;2023-03-03T09:21:22;16.80;;;16.20;;
6121;SDS011;3091;51.506;7.672;2023-03-03T09:23:51;19.37;;;18.40;;
6121;SDS011;3091;51.506;7.672;2023-03-03T09:28:55;17.73;;;16.80;;
6121;SDS011;3091;51.506;7.672;2023-03-03T09:31:36;16.73;;;15.93;;
6121;SDS011;3091;51.506;7.672;2023-03-03T09:34:10;19.43;;;16.57;;
6121;SDS011;3091;51.506;7.672;2023-03-03T09:36:39;16.93;;;16.33;;
6121;SDS011;3091;51.506;7.672;2023-03-03T09:39:24;17.50;;;16.67;;
6121;SDS011;3091;51.506;7.672;2023-03-03T09:52:52;18.20;;;16.97;;
6121;SDS011;3091;51.506;7.672;2023-03-03T10:03:11;16.43;;;15.83;;
6121;SDS011;3091;51.506;7.672;2023-03-03T10:08:41;16.63;;;15.93;;
6121;SDS011;3091;51.506;7.672;2023-03-03T10:16:11;13.30;;;12.80;;
6121;SDS011;3091;51.506;7.672;2023-03-03T10:18:45;16.63;;;15.80;;
6121;SDS011;3091;51.506;7.672;2023-03-03T10:28:48;13.60;;;13.10;;
6121;SDS011;3091;51.506;7.672;2023-03-03T10:42:15;16.50;;;15.70;;
6121;SDS011;3091;51.506;7.672;2023-03-03T10:52:27;12.47;;;11.97;;
6121;SDS011;3091;51.506;7.672;2023-03-03T10:57:42;13.17;;;12.77;;
6121;SDS011;3091;51.506;7.672;2023-03-03T11:08:00;12.70;;;12.27;;
6121;SDS011;3091;51.506;7.672;2023-03-03T11:15:58;12.10;;;11.70;;
6121;SDS011;3091;51.506;7.672;2023-03-03T11:21:06;12.33;;;11.83;;
6121;SDS011;3091;51.506;7.672;2023-03-03T11:34:25;13.50;;;13.00;;
6121;SDS011;3091;51.506;7.672;2023-03-03T11:39:22;12.67;;;12.17;;
6121;SDS011;3091;51.506;7.672;2023-03-03T11:44:21;12.60;;;12.20;;
6121;SDS011;3091;51.506;7.672;2023-03-03T11:46:56;13.50;;;13.00;;
6121;SDS011;3091;51.506;7.672;2023-03-03T11:49:27;12.20;;;11.80;;
6121;SDS011;3091;51.506;7.672;2023-03-03T11:52:02;14.57;;;13.30;;
6121;SDS011;3091;51.506;7.672;2023-03-03T11:54:49;13.70;;;13.20;;
6121;SDS011;3091;51.506;7.672;2023-03-03T11:59:52;12.97;;;12.57;;
6121;SDS011;3091;51.506;7.672;2023-03-03T12:05:10;11.90;;;11.50;;
6121;SDS011;3091;51.506;7.672;2023-03-03T12:12:43;19.90;;;17.80;;
6121;SDS011;3091;51.506;7.672;2023-03-03T12:17:43;13.30;;;12.80;;
6121;SDS011;3091;51.506;7.672;2023-03-03T12:25:26;13.20;;;12.60;;
6121;SDS011;3091;51.506;7.672;2023-03-03T12:33:16;15.70;;;14.90;;
6121;SDS011;3091;51.506;7.672;2023-03-03T12:35:57;14.47;;;13.83;;
6121;SDS011;3091;51.506;7.672;2023-03-03T12:38:32;13.97;;;13.47;;
6121;SDS011;3091;51.506;7.672;2023-03-03T12:46:32;12.57;;;12.17;;
6121;SDS011;3091;51.506;7.672;2023-03-03T12:49:00;15.47;;;14.87;;
6121;SDS011;3091;51.506;7.672;2023-03-03T12:51:30;12.30;;;11.90;;
6121;SDS011;3091;51.506;7.672;2023-03-03T12:54:05;11.83;;;11.43;;
6121;SDS011;3091;51.506;7.672;2023-03-03T12:56:34;11.60;;;11.20;;
6121;SDS011;3091;51.506;7.672;2023-03-03T12:59:04;12.10;;;11.70;;
6121;SDS011;3091;51.506;7.672;2023-03-03T13:04:10;12.33;;;11.83;;
6121;SDS011;3091;51.506;7.672;2023-03-03T13:14:22;13.00;;;12.60;;
6121;SDS011;3091;51.506;7.672;2023-03-03T13:19:24;12.97;;;12.53;;
6121;SDS011;3091;51.506;7.672;2023-03-03T13:21:57;15.30;;;14.70;;
6121;SDS011;3091;51.506;7.672;2023-03-03T13:32:02;13.73;;;13.13;;
6121;SDS011;3091;51.506;7.672;2023-03-03T13:37:01;12.63;;;12.10;;
6121;SDS011;3091;51.506;7.672;2023-03-03T13:39:30;13.90;;;12.10;;
6121;SDS011;3091;51.506;7.672;2023-03-03T13:42:00;10.93;;;10.53;;
6121;SDS011;3091;51.506;7.672;2023-03-03T13:44:29;11.23;;;10.90;;
6121;SDS011;3091;51.506;7.672;2023-03-03T13:49:24;12.10;;;11.70;;
6121;SDS011;3091;51.506;7.672;2023-03-03T13:52:10;16.00;;;15.10;;
6121;SDS011;3091;51.506;7.672;2023-03-03T14:05:22;11.80;;;11.40;;
6121;SDS011;3091;51.506;7.672;2023-03-03T14:08:02;12.43;;;11.93;;
6121;SDS011;3091;51.506;7.672;2023-03-03T14:10:32;14.50;;;13.50;;
6121;SDS011;3091;51.506;7.672;2023-03-03T14:13:03;11.60;;;11.03;;
6121;SDS011;3091;51.506;7.672;2023-03-03T14:15:35;11.23;;;10.83;;
6121;SDS011;3091;51.506;7.672;2023-03-03T14:18:27;11.63;;;11.23;;
6121;SDS011;3091;51.506;7.672;2023-03-03T14:20:58;11.83;;;11.40;;
6121;SDS011;3091;51.506;7.672;2023-03-03T14:23:33;10.43;;;10.03;;
6121;SDS011;3091;51.506;7.672;2023-03-03T14:26:09;13.10;;;12.60;;
6121;SDS011;3091;51.506;7.672;2023-03-03T14:28:40;13.53;;;13.03;;
6121;SDS011;3091;51.506;7.672;2023-03-03T14:31:19;13.33;;;12.83;;
6121;SDS011;3091;51.506;7.672;2023-03-03T14:34:01;11.90;;;11.50;;
6121;SDS011;3091;51.506;7.672;2023-03-03T14:36:30;11.60;;;11.20;;
6121;SDS011;3091;51.506;7.672;2023-03-03T14:38:56;13.20;;;12.50;;
6121;SDS011;3091;51.506;7.672;2023-03-03T14:41:33;13.30;;;12.60;;
6121;SDS011;3091;51.506;7.672;2023-03-03T14:44:01;12.60;;;12.17;;
6121;SDS011;3091;51.506;7.672;2023-03-03T14:46:34;13.17;;;12.57;;
6121;SDS011;3091;51.506;7.672;2023-03-03T14:49:02;11.63;;;11.23;;
6121;SDS011;3091;51.506;7.672;2023-03-03T14:51:37;12.53;;;12.13;;
6121;SDS011;3091;51.506;7.672;2023-03-03T14:54:07;10.10;;;9.80;;
6121;SDS011;3091;51.506;7.672;2023-03-03T14:56:34;10.30;;;10.00;;
6121;SDS011;3091;51.506;7.672;2023-03-03T15:01:39;9.60;;;9.30;;
6121;SDS011;3091;51.506;7.672;2023-03-03T15:11:44;11.00;;;10.70;;
6121;SDS011;3091;51.506;7.672;2023-03-03T15:14:11;11.70;;;11.30;;
6121;SDS011;3091;51.506;7.672;2023-03-03T15:16:39;12.80;;;12.30;;
6121;SDS011;3091;51.506;7.672;2023-03-03T15:21:55;11.50;;;11.10;;
6121;SDS011;3091;51.506;7.672;2023-03-03T15:27:12;11.30;;;10.90;;
6121;SDS011;3091;51.506;7.672;2023-03-03T15:32:24;13.27;;;12.77;;
6121;SDS011;3091;51.506;7.672;2023-03-03T15:34:56;11.33;;;10.93;;
6121;SDS011;3091;51.506;7.672;2023-03-03T15:58:36;11.90;;;11.50;;
6121;SDS011;3091;51.506;7.672;2023-03-03T16:03:45;12.20;;;11.80;;
6121;SDS011;3091;51.506;7.672;2023-03-03T16:06:21;15.50;;;14.80;;
6121;SDS011;3091;51.506;7.672;2023-03-03T16:11:17;13.77;;;13.33;;
6121;SDS011;3091;51.506;7.672;2023-03-03T16:14:00;14.60;;;14.10;;
6121;SDS011;3091;51.506;7.672;2023-03-03T16:23:56;15.10;;;14.50;;
6121;SDS011;3091;51.506;7.672;2023-03-03T16:26:44;15.77;;;15.17;;
6121;SDS011;3091;51.506;7.672;2023-03-03T16:34:54;15.40;;;14.80;;
6121;SDS011;3091;51.506;7.672;2023-03-03T16:37:47;16.10;;;15.50;;
6121;SDS011;3091;51.506;7.672;2023-03-03T16:42:48;15.83;;;15.13;;
6121;SDS011;3091;51.506;7.672;2023-03-03T16:45:25;15.23;;;14.63;;
6121;SDS011;3091;51.506;7.672;2023-03-03T16:50:22;14.90;;;14.30;;
6121;SDS011;3091;51.506;7.672;2023-03-03T16:55:20;15.87;;;15.27;;
6121;SDS011;3091;51.506;7.672;2023-03-03T16:57:54;16.70;;;16.00;;
6121;SDS011;3091;51.506;7.672;2023-03-03T17:00:28;16.73;;;16.03;;
6121;SDS011;3091;51.506;7.672;2023-03-03T17:16:16;16.90;;;16.20;;
6121;SDS011;3091;51.506;7.672;2023-03-03T17:23:58;18.90;;;18.10;;
6121;SDS011;3091;51.506;7.672;2023-03-03T17:31:49;19.50;;;18.70;;
6121;SDS011;3091;51.506;7.672;2023-03-03T17:34:21;19.40;;;18.60;;
6121;SDS011;3091;51.506;7.672;2023-03-03T17:36:57;18.50;;;17.80;;
6121;SDS011;3091;51.506;7.672;2023-03-03T17:39:36;21.00;;;20.10;;
6121;SDS011;3091;51.506;7.672;2023-03-03T17:44:41;19.70;;;18.80;;
6121;SDS011;3091;51.506;7.672;2023-03-03T17:47:24;21.00;;;20.10;;
6121;SDS011;3091;51.506;7.672;2023-03-03T17:57:44;19.50;;;18.60;;
6121;SDS011;3091;51.506;7.672;2023-03-03T18:00:23;22.37;;;20.83;;
6121;SDS011;3091;51.506;7.672;2023-03-03T18:03:02;21.40;;;20.40;;
6121;SDS011;3091;51.506;7.672;2023-03-03T18:05:38;22.87;;;20.73;;
6121;SDS011;3091;51.506;7.672;2023-03-03T18:13:46;18.40;;;17.70;;
6121;SDS011;3091;51.506;7.672;2023-03-03T18:16:19;19.23;;;18.43;;
6121;SDS011;3091;51.506;7.672;2023-03-03T18:23:41;19.83;;;19.03;;
6121;SDS011;3091;51.506;7.672;2023-03-03T18:28:52;21.93;;;20.30;;
6121;SDS011;3091;51.506;7.672;2023-03-03T18:31:31;20.10;;;19.20;;
6121;SDS011;3091;51.506;7.672;2023-03-03T18:33:59;23.83;;;22.20;;
6121;SDS011;3091;51.506;7.672;2023-03-03T18:38:52;20.00;;;19.20;;
6121;SDS011;3091;51.506;7.672;2023-03-03T18:41:25;20.27;;;19.37;;
6121;SDS011;3091;51.506;7.672;2023-03-03T18:43:53;20.80;;;19.90;;
6121;SDS011;3091;51.506;7.672;2023-03-03T18:57:25;21.10;;;20.20;;
6121;SDS011;3091;51.506;7.672;2023-03-03T19:02:38;22.50;;;21.50;;
6121;SDS011;3091;51.506;7.672;2023-03-03T19:10:06;20.80;;;19.80;;
6121;SDS011;3091;51.506;7.672;2023-03-03T19:12:41;19.43;;;18.43;;
6121;SDS011;3091;51.506;7.672;2023-03-03T19:18:13;19.33;;;18.27;;
6121;SDS011;3091;51.506;7.672;2023-03-03T19:20:40;19.23;;;18.33;;
6121;SDS011;3091;51.506;7.672;2023-03-03T19:23:10;19.50;;;18.70;;
6121;SDS011;3091;51.506;7.672;2023-03-03T19:25:38;20.37;;;19.47;;
6121;SDS011;3091;51.506;7.672;2023-03-03T19:30:41;21.50;;;20.50;;
6121;SDS011;3091;51.506;7.672;2023-03-03T19:46:20;21.00;;;20.00;;
6121;SDS011;3091;51.506;7.672;2023-03-03T19:49:03;25.40;;;23.93;;
6121;SDS011;3091;51.506;7.672;2023-03-03T19:51:52;22.00;;;21.00;;
6121;SDS011;3091;51.506;7.672;2023-03-03T19:54:25;20.60;;;19.70;;
6121;SDS011;3091;51.506;7.672;2023-03-03T19:56:57;23.10;;;21.80;;
6121;SDS011;3091;51.506;7.672;2023-03-03T20:07:21;22.13;;;21.00;;
6121;SDS011;3091;51.506;7.672;2023-03-03T20:10:12;20.23;;;19.43;;
6121;SDS011;3091;51.506;7.672;2023-03-03T20:15:12;20.17;;;19.37;;
6121;SDS011;3091;51.506;7.672;2023-03-03T20:22:55;20.30;;;19.50;;
6121;SDS011;3091;51.506;7.672;2023-03-03T20:28:36;21.70;;;20.50;;
6121;SDS011;3091;51.506;7.672;2023-03-03T20:46:21;19.50;;;18.70;;
6121;SDS011;3091;51.506;7.672;2023-03-03T20:48:57;18.80;;;18.10;;
6121;SDS011;3091;51.506;7.672;2023-03-03T20:51:35;19.93;;;19.20;;
6121;SDS011;3091;51.506;7.672;2023-03-03T20:59:23;20.50;;;19.70;;